Etusivu
METAR-TAF:

METAR-TAF

Lentoasemat :

Grand Junction, Colorado, Yhdysvallat

Leveyspiiri: 39-08-02N, Pituuspiiri: 108-32-19W, korkeus merenpinnasta: 1481 m

Tämänhetkinen sää

Tämä raportti tehtiin 37 minuuttia sitten, kello 12.53 UTC
Tuuli 10 kn idästä/kaakosta
Lämpötila 4°C
Kosteus 41%
Ilmanpaine 1020 hPa
Näkyvyys: 16.1 km
selkeää

METAR: KGJT 081253Z 11010KT 10SM CLR 04/M08 A3012 RMK AO2 SLP169 T00441083

Aika: 07:30 (13:30 UTC)

Sääennuste

Tämä raportti tehtiin 2 tuntia ja 9 minuuttia sitten, kello 11.21 UTC
Ennuste voimassa 08. päivästä klo 12 UTC - 09. päivään klo 12 UTC
Tuuli 6 kn idästä/kaakosta
Näkyvyys: 10 km
selkeää
From 08. päivästä klo 2000 UTC
Tuuli 6 kn etelästä
Näkyvyys: 10 km
Muutamia pilviä 25000 ft:n korkeudessa
From 09. päivästä klo 0300 UTC
Tuuli 5 kn idästä
Näkyvyys: 10 km
Muutamia pilviä 25000 ft:n korkeudessa

TAF: KGJT 081121Z 0812/0912 11006KT P6SM SKC FM082000 19006KT P6SM FEW250 FM090300 10005KT P6SM FEW250

Säähavainnot ja -ennusteet yli 4000 lentoasemalta (METAR- ja TAF-raportit).

Käytössä olevat sääasemat on merkitty karttaan keltaisilla ja punaisilla pisteillä.

Aseta hiiri pisteen päälle nähdäksesi sääaseman nimen.

Klikkaa sitten nähdäksesi säähavainnot ja -ennusteet.

Kartan vaihtaminen: klikkaa mustalla rastilla varustettuja vihreitä pisteitä, niin voit zoomata sisään; viivalla varustettua vihreää pistettä, niin voit zoomata ulos tai vihreitä nuolia, niin pääset viereisille kartoille.


METAR-TAF: